Terminal Aerodrome Forecast
Issued by NWS

Home | Current Version | Previous Version | Text Only | Print | Product List | Glossary On
Versions: 1 2 3 4 5 6 7 8 9 10 11 12 13 14 15 16 17 18 19 20 21 22 23 24 25 26 27 28 29 30 31 32 33 34 35 36 37 38 39 40 41 42 43 44 45 46 47 48 49 50
000
FTUS43 KMKX 281120
TAFENW
TAF
KENW 281120Z 2812/2912 VRB03KT 3SM BR BKN200
      TEMPO 2812/2813 1 1/2SM BR
     FM281300 17004KT 6SM BR BKN150
     FM281600 23010KT P6SM BKN120
     FM282000 20006KT P6SM VCSH BKN120
     FM282300 12007KT P6SM -SHRA BKN100
     FM290400 14012KT 5SM SHRA BR OVC090
     FM290600 35005KT 3SM SHRA BR SCT020 OVC050
     FM290800 14007KT 3SM SHRA BR SCT015 OVC035=

USA.gov is the U.S. government's official web portal to all federal, state and local government web resources and services.